sensor_id;sensor_type;location;lat;lon;timestamp;pressure;altitude;pressure_sealevel;temperature;humidity
9935;BME280;5006;41.828;23.478;2023-04-27T00:00:40;89769.31;;;9.60;77.71
9935;BME280;5006;41.828;23.478;2023-04-27T00:01:46;89764.66;;;9.71;77.00
9935;BME280;5006;41.828;23.478;2023-04-27T00:02:51;89766.78;;;9.90;77.54
9935;BME280;5006;41.828;23.478;2023-04-27T00:03:57;89772.19;;;9.83;77.89
9935;BME280;5006;41.828;23.478;2023-04-27T00:05:03;89764.78;;;9.50;78.42
9935;BME280;5006;41.828;23.478;2023-04-27T00:06:09;89765.25;;;9.92;77.66
9935;BME280;5006;41.828;23.478;2023-04-27T00:07:14;89773.25;;;9.41;78.78
9935;BME280;5006;41.828;23.478;2023-04-27T00:08:20;89766.41;;;9.88;77.92
9935;BME280;5006;41.828;23.478;2023-04-27T00:09:27;89761.81;;;9.88;77.23
9935;BME280;5006;41.828;23.478;2023-04-27T00:10:33;89765.72;;;9.80;75.26
9935;BME280;5006;41.828;23.478;2023-04-27T00:11:39;89766.50;;;10.28;74.90
9935;BME280;5006;41.828;23.478;2023-04-27T00:12:45;89769.50;;;9.83;76.26
9935;BME280;5006;41.828;23.478;2023-04-27T00:13:50;89765.84;;;9.63;77.00
9935;BME280;5006;41.828;23.478;2023-04-27T00:14:56;89771.31;;;9.45;78.16
9935;BME280;5006;41.828;23.478;2023-04-27T00:16:01;89779.25;;;9.59;77.60
9935;BME280;5006;41.828;23.478;2023-04-27T00:17:07;89775.44;;;9.57;77.54
9935;BME280;5006;41.828;23.478;2023-04-27T00:18:12;89773.50;;;9.61;78.08
9935;BME280;5006;41.828;23.478;2023-04-27T00:19:18;89770.38;;;9.69;77.48
9935;BME280;5006;41.828;23.478;2023-04-27T00:20:23;89767.47;;;10.01;76.84
9935;BME280;5006;41.828;23.478;2023-04-27T00:21:30;89762.22;;;10.31;76.04
9935;BME280;5006;41.828;23.478;2023-04-27T00:22:36;89766.41;;;10.35;75.29
9935;BME280;5006;41.828;23.478;2023-04-27T00:23:42;89760.41;;;10.21;75.18
9935;BME280;5006;41.828;23.478;2023-04-27T00:24:49;89770.78;;;10.56;74.38
9935;BME280;5006;41.828;23.478;2023-04-27T00:25:55;89761.97;;;10.18;73.91
9935;BME280;5006;41.828;23.478;2023-04-27T00:27:00;89771.13;;;10.21;74.90
9935;BME280;5006;41.828;23.478;2023-04-27T00:28:06;89765.31;;;9.82;73.90
9935;BME280;5006;41.828;23.478;2023-04-27T00:29:11;89770.69;;;10.29;72.55
9935;BME280;5006;41.828;23.478;2023-04-27T00:30:17;89772.00;;;10.11;72.68
9935;BME280;5006;41.828;23.478;2023-04-27T00:31:22;89762.34;;;10.61;72.23
9935;BME280;5006;41.828;23.478;2023-04-27T00:32:28;89761.91;;;10.95;70.64
9935;BME280;5006;41.828;23.478;2023-04-27T00:33:33;89763.34;;;10.73;70.49
9935;BME280;5006;41.828;23.478;2023-04-27T00:34:39;89763.75;;;10.68;71.67
9935;BME280;5006;41.828;23.478;2023-04-27T00:35:44;89762.78;;;10.52;72.12
9935;BME280;5006;41.828;23.478;2023-04-27T00:36:52;89771.66;;;10.46;71.55
9935;BME280;5006;41.828;23.478;2023-04-27T00:37:58;89764.41;;;10.79;70.91
9935;BME280;5006;41.828;23.478;2023-04-27T00:39:05;89766.38;;;11.09;70.36
9935;BME280;5006;41.828;23.478;2023-04-27T00:40:12;89770.66;;;10.69;71.09
9935;BME280;5006;41.828;23.478;2023-04-27T00:41:18;89765.50;;;10.85;72.24
9935;BME280;5006;41.828;23.478;2023-04-27T00:42:25;89766.72;;;11.11;70.89
9935;BME280;5006;41.828;23.478;2023-04-27T00:43:31;89764.13;;;10.34;73.27
9935;BME280;5006;41.828;23.478;2023-04-27T00:44:37;89763.19;;;10.10;74.98
9935;BME280;5006;41.828;23.478;2023-04-27T00:45:43;89760.66;;;10.37;74.24
9935;BME280;5006;41.828;23.478;2023-04-27T00:46:48;89776.25;;;10.01;74.53
9935;BME280;5006;41.828;23.478;2023-04-27T00:47:54;89770.38;;;10.20;74.45
9935;BME280;5006;41.828;23.478;2023-04-27T00:49:01;89773.94;;;10.47;73.18
9935;BME280;5006;41.828;23.478;2023-04-27T00:50:06;89777.22;;;10.25;73.47
9935;BME280;5006;41.828;23.478;2023-04-27T00:51:14;89769.47;;;10.34;73.89
9935;BME280;5006;41.828;23.478;2023-04-27T00:52:19;89779.00;;;9.91;72.23
9935;BME280;5006;41.828;23.478;2023-04-27T00:53:26;89780.09;;;10.04;72.94
9935;BME280;5006;41.828;23.478;2023-04-27T00:54:31;89775.34;;;9.71;72.33
9935;BME280;5006;41.828;23.478;2023-04-27T00:55:40;89778.06;;;9.67;72.61
9935;BME280;5006;41.828;23.478;2023-04-27T00:56:47;89774.94;;;9.76;73.16
9935;BME280;5006;41.828;23.478;2023-04-27T00:57:53;89784.75;;;9.35;72.18
9935;BME280;5006;41.828;23.478;2023-04-27T00:58:59;89778.50;;;9.59;72.41
9935;BME280;5006;41.828;23.478;2023-04-27T01:00:06;89778.44;;;10.17;72.12
9935;BME280;5006;41.828;23.478;2023-04-27T01:01:12;89783.81;;;10.17;70.40
9935;BME280;5006;41.828;23.478;2023-04-27T01:02:18;89773.41;;;10.26;70.44
9935;BME280;5006;41.828;23.478;2023-04-27T01:03:23;89782.00;;;10.84;69.57
9935;BME280;5006;41.828;23.478;2023-04-27T01:04:29;89780.22;;;11.04;68.23
9935;BME280;5006;41.828;23.478;2023-04-27T01:05:36;89786.84;;;10.59;68.32
9935;BME280;5006;41.828;23.478;2023-04-27T01:06:42;89783.16;;;10.46;68.03
9935;BME280;5006;41.828;23.478;2023-04-27T01:07:47;89787.19;;;10.21;69.10
9935;BME280;5006;41.828;23.478;2023-04-27T01:08:53;89782.16;;;9.82;69.60
9935;BME280;5006;41.828;23.478;2023-04-27T01:09:59;89790.59;;;9.77;70.30
9935;BME280;5006;41.828;23.478;2023-04-27T01:11:06;89784.78;;;9.31;70.36
9935;BME280;5006;41.828;23.478;2023-04-27T01:12:11;89795.69;;;8.89;72.39
9935;BME280;5006;41.828;23.478;2023-04-27T01:13:17;89789.09;;;9.73;70.77
9935;BME280;5006;41.828;23.478;2023-04-27T01:14:22;89791.09;;;10.16;70.33
9935;BME280;5006;41.828;23.478;2023-04-27T01:15:29;89798.06;;;10.00;70.71
9935;BME280;5006;41.828;23.478;2023-04-27T01:16:34;89796.16;;;10.04;70.95
9935;BME280;5006;41.828;23.478;2023-04-27T01:17:40;89793.66;;;10.27;70.10
9935;BME280;5006;41.828;23.478;2023-04-27T01:18:46;89805.06;;;9.87;70.88
9935;BME280;5006;41.828;23.478;2023-04-27T01:19:52;89794.41;;;9.76;70.87
9935;BME280;5006;41.828;23.478;2023-04-27T01:20:59;89792.56;;;10.21;70.92
9935;BME280;5006;41.828;23.478;2023-04-27T01:22:06;89801.22;;;9.91;70.59
9935;BME280;5006;41.828;23.478;2023-04-27T01:23:14;89807.41;;;9.09;72.84
9935;BME280;5006;41.828;23.478;2023-04-27T01:24:20;89804.53;;;9.51;72.62
9935;BME280;5006;41.828;23.478;2023-04-27T01:25:25;89797.84;;;9.15;72.63
9935;BME280;5006;41.828;23.478;2023-04-27T01:26:31;89805.28;;;9.52;72.35
9935;BME280;5006;41.828;23.478;2023-04-27T01:27:36;89807.94;;;10.13;71.10
9935;BME280;5006;41.828;23.478;2023-04-27T01:28:42;89806.00;;;9.59;72.80
9935;BME280;5006;41.828;23.478;2023-04-27T01:29:47;89808.44;;;9.36;73.19
9935;BME280;5006;41.828;23.478;2023-04-27T01:30:53;89817.09;;;9.61;72.69
9935;BME280;5006;41.828;23.478;2023-04-27T01:31:58;89813.00;;;9.97;71.65
9935;BME280;5006;41.828;23.478;2023-04-27T01:33:04;89812.06;;;9.67;72.45
9935;BME280;5006;41.828;23.478;2023-04-27T01:34:09;89806.00;;;9.59;73.46
9935;BME280;5006;41.828;23.478;2023-04-27T01:35:15;89812.22;;;9.42;74.11
9935;BME280;5006;41.828;23.478;2023-04-27T01:36:20;89822.06;;;9.63;73.85
9935;BME280;5006;41.828;23.478;2023-04-27T01:37:26;89812.53;;;9.58;73.26
9935;BME280;5006;41.828;23.478;2023-04-27T01:38:33;89813.25;;;9.62;74.32
9935;BME280;5006;41.828;23.478;2023-04-27T01:39:39;89817.56;;;9.46;74.49
9935;BME280;5006;41.828;23.478;2023-04-27T01:40:46;89818.97;;;8.96;75.69
9935;BME280;5006;41.828;23.478;2023-04-27T01:41:52;89815.44;;;9.13;76.12
9935;BME280;5006;41.828;23.478;2023-04-27T01:42:57;89813.19;;;9.08;75.60
9935;BME280;5006;41.828;23.478;2023-04-27T01:44:03;89822.13;;;9.49;75.52
9935;BME280;5006;41.828;23.478;2023-04-27T01:45:10;89814.91;;;9.42;74.68
9935;BME280;5006;41.828;23.478;2023-04-27T01:46:15;89808.50;;;9.26;74.78
9935;BME280;5006;41.828;23.478;2023-04-27T01:47:21;89810.91;;;8.99;75.95
9935;BME280;5006;41.828;23.478;2023-04-27T01:48:26;89812.31;;;9.25;76.02
9935;BME280;5006;41.828;23.478;2023-04-27T01:49:32;89819.97;;;9.23;75.86
9935;BME280;5006;41.828;23.478;2023-04-27T01:50:37;89817.22;;;9.40;74.64
9935;BME280;5006;41.828;23.478;2023-04-27T01:51:44;89823.47;;;9.06;76.26
9935;BME280;5006;41.828;23.478;2023-04-27T01:52:49;89819.44;;;8.66;77.34
9935;BME280;5006;41.828;23.478;2023-04-27T01:53:56;89814.56;;;8.20;80.27
9935;BME280;5006;41.828;23.478;2023-04-27T01:55:01;89815.31;;;8.34;80.69
9935;BME280;5006;41.828;23.478;2023-04-27T01:56:07;89816.78;;;8.46;80.20
9935;BME280;5006;41.828;23.478;2023-04-27T01:57:13;89819.84;;;8.54;79.55
9935;BME280;5006;41.828;23.478;2023-04-27T01:58:19;89823.25;;;8.62;78.93
9935;BME280;5006;41.828;23.478;2023-04-27T01:59:26;89812.47;;;8.90;79.20
9935;BME280;5006;41.828;23.478;2023-04-27T02:00:32;89816.34;;;8.75;78.51
9935;BME280;5006;41.828;23.478;2023-04-27T02:01:37;89811.44;;;8.46;79.41
9935;BME280;5006;41.828;23.478;2023-04-27T02:02:43;89819.72;;;8.93;78.21
9935;BME280;5006;41.828;23.478;2023-04-27T02:03:49;89805.66;;;8.71;77.93
9935;BME280;5006;41.828;23.478;2023-04-27T02:04:55;89803.13;;;8.19;80.46
9935;BME280;5006;41.828;23.478;2023-04-27T02:06:00;89811.09;;;8.09;80.40
9935;BME280;5006;41.828;23.478;2023-04-27T02:07:06;89813.81;;;8.19;80.83
9935;BME280;5006;41.828;23.478;2023-04-27T02:08:12;89803.06;;;8.40;81.04
9935;BME280;5006;41.828;23.478;2023-04-27T02:09:19;89805.78;;;8.05;81.47
9935;BME280;5006;41.828;23.478;2023-04-27T02:10:25;89808.38;;;8.61;80.93
9935;BME280;5006;41.828;23.478;2023-04-27T02:11:35;89812.50;;;8.79;79.78
9935;BME280;5006;41.828;23.478;2023-04-27T02:12:41;89808.78;;;8.52;80.13
9935;BME280;5006;41.828;23.478;2023-04-27T02:13:47;89809.56;;;8.46;80.04
9935;BME280;5006;41.828;23.478;2023-04-27T02:14:53;89813.34;;;8.48;79.61
9935;BME280;5006;41.828;23.478;2023-04-27T02:15:58;89810.31;;;8.50;79.78
9935;BME280;5006;41.828;23.478;2023-04-27T02:17:05;89808.81;;;8.35;80.09
9935;BME280;5006;41.828;23.478;2023-04-27T02:18:10;89811.72;;;8.82;78.80
9935;BME280;5006;41.828;23.478;2023-04-27T02:19:17;89808.31;;;8.75;78.87
9935;BME280;5006;41.828;23.478;2023-04-27T02:20:22;89804.91;;;8.64;78.93
9935;BME280;5006;41.828;23.478;2023-04-27T02:21:29;89809.53;;;8.60;78.74
9935;BME280;5006;41.828;23.478;2023-04-27T02:22:34;89812.25;;;8.11;80.09
9935;BME280;5006;41.828;23.478;2023-04-27T02:23:40;89803.09;;;8.33;80.19
9935;BME280;5006;41.828;23.478;2023-04-27T02:24:47;89818.31;;;8.47;79.20
9935;BME280;5006;41.828;23.478;2023-04-27T02:25:53;89805.75;;;8.26;80.44
9935;BME280;5006;41.828;23.478;2023-04-27T02:26:58;89816.34;;;8.82;79.20
9935;BME280;5006;41.828;23.478;2023-04-27T02:28:04;89817.13;;;8.65;79.53
9935;BME280;5006;41.828;23.478;2023-04-27T02:29:09;89809.53;;;8.63;79.61
9935;BME280;5006;41.828;23.478;2023-04-27T02:30:16;89810.25;;;8.67;79.52
9935;BME280;5006;41.828;23.478;2023-04-27T02:31:21;89817.13;;;8.72;79.06
9935;BME280;5006;41.828;23.478;2023-04-27T02:32:27;89806.34;;;8.93;79.05
9935;BME280;5006;41.828;23.478;2023-04-27T02:33:32;89816.44;;;8.30;80.44
9935;BME280;5006;41.828;23.478;2023-04-27T02:34:38;89819.50;;;8.39;81.23
9935;BME280;5006;41.828;23.478;2023-04-27T02:35:43;89819.84;;;8.51;80.64
9935;BME280;5006;41.828;23.478;2023-04-27T02:36:49;89825.22;;;8.09;80.96
9935;BME280;5006;41.828;23.478;2023-04-27T02:37:54;89822.94;;;8.11;81.81
9935;BME280;5006;41.828;23.478;2023-04-27T02:39:02;89822.94;;;8.11;81.16
9935;BME280;5006;41.828;23.478;2023-04-27T02:40:10;89822.50;;;8.48;80.78
9935;BME280;5006;41.828;23.478;2023-04-27T02:41:16;89820.50;;;8.90;79.55
9935;BME280;5006;41.828;23.478;2023-04-27T02:42:21;89824.06;;;9.45;77.36
9935;BME280;5006;41.828;23.478;2023-04-27T02:43:27;89826.63;;;8.90;76.82
9935;BME280;5006;41.828;23.478;2023-04-27T02:44:33;89827.81;;;8.72;78.14
9935;BME280;5006;41.828;23.478;2023-04-27T02:45:38;89822.94;;;8.32;78.73
9935;BME280;5006;41.828;23.478;2023-04-27T02:46:45;89826.25;;;8.85;77.07
9935;BME280;5006;41.828;23.478;2023-04-27T02:47:50;89826.63;;;8.87;75.92
9935;BME280;5006;41.828;23.478;2023-04-27T02:48:56;89827.72;;;9.03;75.15
9935;BME280;5006;41.828;23.478;2023-04-27T02:50:01;89835.41;;;8.84;75.98
9935;BME280;5006;41.828;23.478;2023-04-27T02:51:11;89832.34;;;8.85;76.44
9935;BME280;5006;41.828;23.478;2023-04-27T02:52:16;89834.59;;;9.04;75.31
9935;BME280;5006;41.828;23.478;2023-04-27T02:53:22;89836.09;;;9.09;74.70
9935;BME280;5006;41.828;23.478;2023-04-27T02:54:28;89833.22;;;8.37;76.23
9935;BME280;5006;41.828;23.478;2023-04-27T02:55:36;89830.56;;;8.09;76.92
9935;BME280;5006;41.828;23.478;2023-04-27T02:56:41;89829.81;;;8.19;77.67
9935;BME280;5006;41.828;23.478;2023-04-27T02:57:47;89830.19;;;8.35;76.70
9935;BME280;5006;41.828;23.478;2023-04-27T02:58:52;89834.66;;;8.80;76.09
9935;BME280;5006;41.828;23.478;2023-04-27T03:00:16;89836.84;;;9.13;74.55
9935;BME280;5006;41.828;23.478;2023-04-27T03:01:22;89836.25;;;8.56;76.25
9935;BME280;5006;41.828;23.478;2023-04-27T03:02:27;89835.06;;;8.68;76.82
9935;BME280;5006;41.828;23.478;2023-04-27T03:03:34;89837.72;;;8.68;76.38
9935;BME280;5006;41.828;23.478;2023-04-27T03:04:39;89838.16;;;8.46;77.48
9935;BME280;5006;41.828;23.478;2023-04-27T03:05:45;89843.13;;;8.61;77.16
9935;BME280;5006;41.828;23.478;2023-04-27T03:06:50;89848.47;;;8.40;77.41
9935;BME280;5006;41.828;23.478;2023-04-27T03:07:56;89843.47;;;8.66;76.84
9935;BME280;5006;41.828;23.478;2023-04-27T03:09:02;89844.66;;;8.13;79.03
9935;BME280;5006;41.828;23.478;2023-04-27T03:10:10;89848.09;;;8.38;79.76
9935;BME280;5006;41.828;23.478;2023-04-27T03:11:16;89837.41;;;8.48;78.24
9935;BME280;5006;41.828;23.478;2023-04-27T03:12:22;89849.25;;;8.34;78.16
9935;BME280;5006;41.828;23.478;2023-04-27T03:13:27;89852.69;;;8.13;79.28
9935;BME280;5006;41.828;23.478;2023-04-27T03:14:33;89848.47;;;8.16;79.04
9935;BME280;5006;41.828;23.478;2023-04-27T03:15:39;89859.88;;;8.72;78.37
9935;BME280;5006;41.828;23.478;2023-04-27T03:16:45;89848.84;;;8.46;77.64
9935;BME280;5006;41.828;23.478;2023-04-27T03:17:51;89862.19;;;8.70;76.38
9935;BME280;5006;41.828;23.478;2023-04-27T03:18:57;89859.53;;;8.49;77.96
9935;BME280;5006;41.828;23.478;2023-04-27T03:20:02;89858.78;;;8.38;77.63
9935;BME280;5006;41.828;23.478;2023-04-27T03:21:12;89862.19;;;8.59;77.30
9935;BME280;5006;41.828;23.478;2023-04-27T03:22:20;89864.50;;;8.51;77.06
9935;BME280;5006;41.828;23.478;2023-04-27T03:23:25;89866.75;;;8.66;77.27
9935;BME280;5006;41.828;23.478;2023-04-27T03:24:31;89867.53;;;8.59;77.20
9935;BME280;5006;41.828;23.478;2023-04-27T03:25:37;89866.75;;;8.76;75.14
9935;BME280;5006;41.828;23.478;2023-04-27T03:26:48;89863.69;;;8.74;74.62
9935;BME280;5006;41.828;23.478;2023-04-27T03:27:54;89864.88;;;8.63;74.32
9935;BME280;5006;41.828;23.478;2023-04-27T03:29:01;89857.59;;;8.74;72.23
9935;BME280;5006;41.828;23.478;2023-04-27T03:30:08;89864.53;;;8.33;74.04
9935;BME280;5006;41.828;23.478;2023-04-27T03:31:13;89866.81;;;8.28;74.60
9935;BME280;5006;41.828;23.478;2023-04-27T03:32:20;89858.78;;;8.55;72.11
9935;BME280;5006;41.828;23.478;2023-04-27T03:33:25;89867.56;;;8.52;71.45
9935;BME280;5006;41.828;23.478;2023-04-27T03:34:32;89867.59;;;8.39;71.73
9935;BME280;5006;41.828;23.478;2023-04-27T03:35:38;89864.50;;;8.64;71.86
9935;BME280;5006;41.828;23.478;2023-04-27T03:36:44;89863.34;;;8.58;71.40
9935;BME280;5006;41.828;23.478;2023-04-27T03:37:50;89867.19;;;8.51;70.87
9935;BME280;5006;41.828;23.478;2023-04-27T03:38:56;89870.19;;;7.72;72.53
9935;BME280;5006;41.828;23.478;2023-04-27T03:40:04;89869.09;;;8.43;71.00
9935;BME280;5006;41.828;23.478;2023-04-27T03:41:11;89863.75;;;8.33;70.89
9935;BME280;5006;41.828;23.478;2023-04-27T03:42:18;89871.38;;;8.24;72.76
9935;BME280;5006;41.828;23.478;2023-04-27T03:43:24;89866.41;;;8.47;72.67
9935;BME280;5006;41.828;23.478;2023-04-27T03:44:30;89872.88;;;8.14;72.28
9935;BME280;5006;41.828;23.478;2023-04-27T03:45:37;89875.94;;;8.16;73.23
9935;BME280;5006;41.828;23.478;2023-04-27T03:46:43;89868.31;;;8.15;72.84
9935;BME280;5006;41.828;23.478;2023-04-27T03:47:48;89875.22;;;8.30;72.58
9935;BME280;5006;41.828;23.478;2023-04-27T03:48:54;89874.06;;;8.38;72.20
9935;BME280;5006;41.828;23.478;2023-04-27T03:50:00;89870.59;;;8.16;72.30
9935;BME280;5006;41.828;23.478;2023-04-27T03:51:06;89859.88;;;8.68;72.02
9935;BME280;5006;41.828;23.478;2023-04-27T03:52:11;89870.22;;;8.18;71.73
9935;BME280;5006;41.828;23.478;2023-04-27T03:53:17;89878.25;;;8.35;72.86
9935;BME280;5006;41.828;23.478;2023-04-27T03:54:23;89867.53;;;7.83;74.42
9935;BME280;5006;41.828;23.478;2023-04-27T03:55:28;89876.72;;;8.03;75.99
9935;BME280;5006;41.828;23.478;2023-04-27T03:56:35;89877.09;;;8.08;75.56
9935;BME280;5006;41.828;23.478;2023-04-27T03:57:43;89869.44;;;8.66;75.35
9935;BME280;5006;41.828;23.478;2023-04-27T03:58:49;89876.72;;;8.27;75.52
9935;BME280;5006;41.828;23.478;2023-04-27T03:59:59;89876.31;;;8.08;75.48
9935;BME280;5006;41.828;23.478;2023-04-27T04:01:05;89878.25;;;8.32;75.91
9935;BME280;5006;41.828;23.478;2023-04-27T04:02:13;89874.81;;;7.86;74.91
9935;BME280;5006;41.828;23.478;2023-04-27T04:03:20;89882.03;;;7.85;75.16
9935;BME280;5006;41.828;23.478;2023-04-27T04:04:26;89888.19;;;8.24;73.16
9935;BME280;5006;41.828;23.478;2023-04-27T04:05:33;89884.38;;;8.25;74.00
9935;BME280;5006;41.828;23.478;2023-04-27T04:06:38;89879.38;;;8.17;74.18
9935;BME280;5006;41.828;23.478;2023-04-27T04:07:44;89888.19;;;8.31;74.16
9935;BME280;5006;41.828;23.478;2023-04-27T04:08:50;89882.06;;;8.45;71.79
9935;BME280;5006;41.828;23.478;2023-04-27T04:09:56;89891.53;;;8.87;69.99
9935;BME280;5006;41.828;23.478;2023-04-27T04:11:02;89893.78;;;9.06;70.78
9935;BME280;5006;41.828;23.478;2023-04-27T04:12:08;89894.56;;;8.96;70.94
9935;BME280;5006;41.828;23.478;2023-04-27T04:13:15;89890.91;;;9.59;69.61
9935;BME280;5006;41.828;23.478;2023-04-27T04:14:21;89895.31;;;9.11;69.40
9935;BME280;5006;41.828;23.478;2023-04-27T04:15:27;89898.44;;;8.88;69.25
9935;BME280;5006;41.828;23.478;2023-04-27T04:16:33;89904.78;;;9.29;66.99
9935;BME280;5006;41.828;23.478;2023-04-27T04:17:38;89903.38;;;8.90;68.09
9935;BME280;5006;41.828;23.478;2023-04-27T04:18:45;89904.91;;;8.94;67.63
9935;BME280;5006;41.828;23.478;2023-04-27T04:19:50;89914.47;;;8.85;67.76
9935;BME280;5006;41.828;23.478;2023-04-27T04:20:56;89905.31;;;8.86;67.76
9935;BME280;5006;41.828;23.478;2023-04-27T04:22:02;89906.41;;;9.02;68.09
9935;BME280;5006;41.828;23.478;2023-04-27T04:23:08;89908.31;;;9.09;68.37
9935;BME280;5006;41.828;23.478;2023-04-27T04:24:13;89911.75;;;8.99;67.59
9935;BME280;5006;41.828;23.478;2023-04-27T04:25:19;89910.97;;;9.09;67.25
9935;BME280;5006;41.828;23.478;2023-04-27T04:26:25;89917.06;;;9.06;66.94
9935;BME280;5006;41.828;23.478;2023-04-27T04:27:32;89906.50;;;8.57;68.25
9935;BME280;5006;41.828;23.478;2023-04-27T04:28:38;89915.56;;;9.05;68.27
9935;BME280;5006;41.828;23.478;2023-04-27T04:29:44;89919.38;;;9.11;68.01
9935;BME280;5006;41.828;23.478;2023-04-27T04:32:14;89913.97;;;9.25;67.25
9935;BME280;5006;41.828;23.478;2023-04-27T04:33:22;89916.69;;;9.11;67.82
9935;BME280;5006;41.828;23.478;2023-04-27T04:34:29;89917.75;;;9.41;67.26
9935;BME280;5006;41.828;23.478;2023-04-27T04:35:36;89915.44;;;9.47;66.35
9935;BME280;5006;41.828;23.478;2023-04-27T04:36:42;89918.47;;;9.49;65.81
9935;BME280;5006;41.828;23.478;2023-04-27T04:37:48;89919.28;;;9.39;66.19
9935;BME280;5006;41.828;23.478;2023-04-27T04:38:55;89932.25;;;9.47;65.82
9935;BME280;5006;41.828;23.478;2023-04-27T04:40:06;89913.69;;;8.95;65.01
9935;BME280;5006;41.828;23.478;2023-04-27T04:41:14;89925.44;;;9.29;66.27
9935;BME280;5006;41.828;23.478;2023-04-27T04:42:20;89921.59;;;9.30;66.04
9935;BME280;5006;41.828;23.478;2023-04-27T04:43:25;89914.72;;;9.36;65.34
9935;BME280;5006;41.828;23.478;2023-04-27T04:44:33;89910.84;;;9.44;65.29
9935;BME280;5006;41.828;23.478;2023-04-27T04:45:38;89921.59;;;10.16;63.98
9935;BME280;5006;41.828;23.478;2023-04-27T04:46:45;89926.66;;;9.07;65.29
9935;BME280;5006;41.828;23.478;2023-04-27T04:47:50;89932.66;;;9.35;64.71
9935;BME280;5006;41.828;23.478;2023-04-27T04:48:58;89931.75;;;9.70;64.39
9935;BME280;5006;41.828;23.478;2023-04-27T04:50:04;89931.47;;;9.50;64.09
9935;BME280;5006;41.828;23.478;2023-04-27T04:51:11;89925.97;;;9.82;64.00
9935;BME280;5006;41.828;23.478;2023-04-27T04:52:16;89933.19;;;9.92;63.30
9935;BME280;5006;41.828;23.478;2023-04-27T04:53:22;89934.41;;;9.77;63.19
9935;BME280;5006;41.828;23.478;2023-04-27T04:54:28;89931.13;;;9.38;63.58
9935;BME280;5006;41.828;23.478;2023-04-27T04:55:33;89925.66;;;9.73;63.77
9935;BME280;5006;41.828;23.478;2023-04-27T04:56:39;89940.13;;;9.82;63.63
9935;BME280;5006;41.828;23.478;2023-04-27T04:57:44;89938.25;;;9.72;63.58
9935;BME280;5006;41.828;23.478;2023-04-27T04:58:50;89946.44;;;10.23;62.62
9935;BME280;5006;41.828;23.478;2023-04-27T04:59:57;89937.75;;;9.95;62.87
9935;BME280;5006;41.828;23.478;2023-04-27T05:01:03;89930.69;;;10.29;61.85
9935;BME280;5006;41.828;23.478;2023-04-27T05:02:08;89938.03;;;10.18;62.38
9935;BME280;5006;41.828;23.478;2023-04-27T05:03:14;89932.47;;;10.46;62.34
9935;BME280;5006;41.828;23.478;2023-04-27T05:04:20;89932.09;;;9.82;62.60
9935;BME280;5006;41.828;23.478;2023-04-27T05:05:26;89935.38;;;9.18;63.51
9935;BME280;5006;41.828;23.478;2023-04-27T05:06:33;89957.53;;;9.39;62.73
9935;BME280;5006;41.828;23.478;2023-04-27T05:07:39;89938.75;;;9.50;62.40
9935;BME280;5006;41.828;23.478;2023-04-27T05:08:45;89939.19;;;10.17;62.18
9935;BME280;5006;41.828;23.478;2023-04-27T05:09:51;89945.06;;;9.91;62.33
9935;BME280;5006;41.828;23.478;2023-04-27T05:10:58;89945.91;;;9.70;63.00
9935;BME280;5006;41.828;23.478;2023-04-27T05:12:04;89952.13;;;9.43;63.80
9935;BME280;5006;41.828;23.478;2023-04-27T05:13:10;89951.34;;;9.53;63.13
9935;BME280;5006;41.828;23.478;2023-04-27T05:14:16;89948.16;;;9.86;62.67
9935;BME280;5006;41.828;23.478;2023-04-27T05:15:24;89945.47;;;10.51;61.38
9935;BME280;5006;41.828;23.478;2023-04-27T05:16:30;89942.56;;;10.28;61.82
9935;BME280;5006;41.828;23.478;2023-04-27T05:17:35;89943.38;;;10.25;61.42
9935;BME280;5006;41.828;23.478;2023-04-27T05:18:42;89947.63;;;10.15;61.61
9935;BME280;5006;41.828;23.478;2023-04-27T05:19:47;89947.16;;;10.81;60.84
9935;BME280;5006;41.828;23.478;2023-04-27T05:20:53;89942.72;;;10.58;61.06
9935;BME280;5006;41.828;23.478;2023-04-27T05:21:59;89959.53;;;10.11;61.74
9935;BME280;5006;41.828;23.478;2023-04-27T05:23:04;89950.53;;;10.38;61.41
9935;BME280;5006;41.828;23.478;2023-04-27T05:24:10;89958.22;;;10.36;60.30
9935;BME280;5006;41.828;23.478;2023-04-27T05:25:16;89952.25;;;10.69;60.51
9935;BME280;5006;41.828;23.478;2023-04-27T05:26:22;89953.28;;;10.82;60.50
9935;BME280;5006;41.828;23.478;2023-04-27T05:27:27;89954.81;;;10.79;60.49
9935;BME280;5006;41.828;23.478;2023-04-27T05:28:34;89957.31;;;10.53;59.86
9935;BME280;5006;41.828;23.478;2023-04-27T05:29:39;89954.38;;;10.34;59.36
9935;BME280;5006;41.828;23.478;2023-04-27T05:30:46;89953.19;;;10.45;60.07
9935;BME280;5006;41.828;23.478;2023-04-27T05:31:51;89947.03;;;10.95;59.37
9935;BME280;5006;41.828;23.478;2023-04-27T05:32:57;89951.22;;;10.96;59.39
9935;BME280;5006;41.828;23.478;2023-04-27T05:34:02;89958.75;;;11.12;58.51
9935;BME280;5006;41.828;23.478;2023-04-27T05:35:08;89951.16;;;11.03;59.43
9935;BME280;5006;41.828;23.478;2023-04-27T05:36:13;89948.31;;;10.77;60.02
9935;BME280;5006;41.828;23.478;2023-04-27T05:37:19;89946.81;;;10.72;59.37
9935;BME280;5006;41.828;23.478;2023-04-27T05:38:25;89949.91;;;10.71;60.15
9935;BME280;5006;41.828;23.478;2023-04-27T05:39:31;89942.09;;;10.90;59.85
9935;BME280;5006;41.828;23.478;2023-04-27T05:40:37;89945.63;;;10.26;60.63
9935;BME280;5006;41.828;23.478;2023-04-27T05:41:42;89950.81;;;10.54;60.56
9935;BME280;5006;41.828;23.478;2023-04-27T05:42:48;89944.25;;;10.62;59.47
9935;BME280;5006;41.828;23.478;2023-04-27T05:43:53;89958.66;;;10.78;58.53
9935;BME280;5006;41.828;23.478;2023-04-27T05:44:59;89958.19;;;10.40;59.29
9935;BME280;5006;41.828;23.478;2023-04-27T05:46:06;89952.56;;;10.74;58.73
9935;BME280;5006;41.828;23.478;2023-04-27T05:47:13;89954.06;;;11.23;58.96
9935;BME280;5006;41.828;23.478;2023-04-27T05:48:21;89953.69;;;10.77;58.89
9935;BME280;5006;41.828;23.478;2023-04-27T05:49:27;89968.13;;;10.43;58.81
9935;BME280;5006;41.828;23.478;2023-04-27T05:50:33;89958.97;;;10.87;57.50
9935;BME280;5006;41.828;23.478;2023-04-27T05:51:39;89969.31;;;11.33;58.05
9935;BME280;5006;41.828;23.478;2023-04-27T05:52:44;89954.81;;;11.60;56.94
9935;BME280;5006;41.828;23.478;2023-04-27T05:53:50;89975.09;;;10.30;58.16
9935;BME280;5006;41.828;23.478;2023-04-27T05:54:59;89955.56;;;11.27;57.79
9935;BME280;5006;41.828;23.478;2023-04-27T05:56:05;89965.31;;;11.48;58.10
9935;BME280;5006;41.828;23.478;2023-04-27T05:57:11;89964.97;;;11.02;57.78
9935;BME280;5006;41.828;23.478;2023-04-27T05:58:16;89960.88;;;11.31;57.36
9935;BME280;5006;41.828;23.478;2023-04-27T05:59:22;89987.53;;;10.61;57.53
9935;BME280;5006;41.828;23.478;2023-04-27T06:00:28;89980.22;;;11.52;56.95